sensor_id;sensor_type;location;lat;lon;timestamp;pressure;altitude;pressure_sealevel;temperature;humidity
60371;BME280;48550;40.588;49.684;2024-03-02T00:02:14;102789.28;;;4.52;68.64
60371;BME280;48550;40.588;49.684;2024-03-02T00:04:40;102785.94;;;4.44;68.29
60371;BME280;48550;40.588;49.684;2024-03-02T00:07:06;102782.59;;;4.35;68.20
60371;BME280;48550;40.588;49.684;2024-03-02T00:09:32;102785.09;;;4.42;68.13
60371;BME280;48550;40.588;49.684;2024-03-02T00:12:00;102786.91;;;4.40;68.69
60371;BME280;48550;40.588;49.684;2024-03-02T00:14:28;102781.72;;;4.36;68.38
60371;BME280;48550;40.588;49.684;2024-03-02T00:16:55;102780.78;;;4.41;68.16
60371;BME280;48550;40.588;49.684;2024-03-02T00:19:22;102773.84;;;4.38;68.33
60371;BME280;48550;40.588;49.684;2024-03-02T00:21:47;102772.81;;;4.45;68.01
60371;BME280;48550;40.588;49.684;2024-03-02T00:24:34;102782.38;;;4.48;68.23
60371;BME280;48550;40.588;49.684;2024-03-02T00:27:03;102765.78;;;4.50;67.63
60371;BME280;48550;40.588;49.684;2024-03-02T00:29:29;102772.66;;;4.53;67.58
60371;BME280;48550;40.588;49.684;2024-03-02T00:31:55;102766.72;;;4.45;67.69
60371;BME280;48550;40.588;49.684;2024-03-02T00:34:21;102771.88;;;4.49;68.27
60371;BME280;48550;40.588;49.684;2024-03-02T00:36:48;102777.09;;;4.51;67.57
60371;BME280;48550;40.588;49.684;2024-03-02T00:39:16;102777.91;;;4.53;67.24
60371;BME280;48550;40.588;49.684;2024-03-02T00:41:43;102770.94;;;4.53;67.61
60371;BME280;48550;40.588;49.684;2024-03-02T00:44:12;102777.84;;;4.56;67.26
60371;BME280;48550;40.588;49.684;2024-03-02T00:46:39;102770.09;;;4.51;67.09
60371;BME280;48550;40.588;49.684;2024-03-02T00:51:46;102751.06;;;4.43;67.26
60371;BME280;48550;40.588;49.684;2024-03-02T00:54:19;102743.28;;;4.40;67.87
60371;BME280;48550;40.588;49.684;2024-03-02T00:56:47;102748.44;;;4.43;67.44
60371;BME280;48550;40.588;49.684;2024-03-02T00:59:13;102748.38;;;4.48;67.17
60371;BME280;48550;40.588;49.684;2024-03-02T01:01:40;102744.84;;;4.50;67.23
60371;BME280;48550;40.588;49.684;2024-03-02T01:04:07;102744.72;;;4.57;66.72
60371;BME280;48550;40.588;49.684;2024-03-02T01:06:33;102745.66;;;4.52;66.92
60371;BME280;48550;40.588;49.684;2024-03-02T01:08:59;102743.88;;;4.54;66.57
60371;BME280;48550;40.588;49.684;2024-03-02T01:11:24;102740.34;;;4.57;66.48
60371;BME280;48550;40.588;49.684;2024-03-02T01:13:51;102742.06;;;4.58;66.37
60371;BME280;48550;40.588;49.684;2024-03-02T01:16:20;102743.69;;;4.64;66.97
60371;BME280;48550;40.588;49.684;2024-03-02T01:18:46;102749.88;;;4.60;67.09
60371;BME280;48550;40.588;49.684;2024-03-02T01:21:11;102742.94;;;4.59;66.93
60371;BME280;48550;40.588;49.684;2024-03-02T01:23:38;102745.63;;;4.54;66.78
60371;BME280;48550;40.588;49.684;2024-03-02T01:26:04;102748.22;;;4.56;67.24
60371;BME280;48550;40.588;49.684;2024-03-02T01:28:29;102747.31;;;4.58;67.27
60371;BME280;48550;40.588;49.684;2024-03-02T01:30:55;102750.00;;;4.53;67.23
60371;BME280;48550;40.588;49.684;2024-03-02T01:33:21;102749.19;;;4.50;67.28
60371;BME280;48550;40.588;49.684;2024-03-02T01:35:47;102757.88;;;4.53;67.16
60371;BME280;48550;40.588;49.684;2024-03-02T01:38:12;102752.59;;;4.55;67.48
60371;BME280;48550;40.588;49.684;2024-03-02T01:40:38;102758.97;;;4.85;67.75
60371;BME280;48550;40.588;49.684;2024-03-02T01:43:05;102747.94;;;5.10;67.70
60371;BME280;48550;40.588;49.684;2024-03-02T01:45:32;102768.91;;;5.08;66.24
60371;BME280;48550;40.588;49.684;2024-03-02T01:47:58;102761.06;;;5.08;66.51
60371;BME280;48550;40.588;49.684;2024-03-02T01:50:28;102770.91;;;4.97;66.97
60371;BME280;48550;40.588;49.684;2024-03-02T01:52:55;102771.38;;;5.16;67.77
60371;BME280;48550;40.588;49.684;2024-03-02T01:55:21;102763.16;;;4.93;68.28
60371;BME280;48550;40.588;49.684;2024-03-02T01:57:48;102758.47;;;5.07;70.49
60371;BME280;48550;40.588;49.684;2024-03-02T02:00:15;102767.53;;;4.92;69.55
60371;BME280;48550;40.588;49.684;2024-03-02T02:02:40;102767.66;;;4.86;71.90
60371;BME280;48550;40.588;49.684;2024-03-02T02:05:07;102769.34;;;4.90;71.31
60371;BME280;48550;40.588;49.684;2024-03-02T02:07:32;102764.28;;;4.81;70.36
60371;BME280;48550;40.588;49.684;2024-03-02T02:10:00;102762.69;;;4.73;70.48
60371;BME280;48550;40.588;49.684;2024-03-02T02:12:26;102767.63;;;4.44;71.55
60371;BME280;48550;40.588;49.684;2024-03-02T02:14:52;102760.56;;;4.49;72.83
60371;BME280;48550;40.588;49.684;2024-03-02T02:17:18;102756.63;;;4.26;71.94
60371;BME280;48550;40.588;49.684;2024-03-02T02:19:44;102764.66;;;4.17;72.50
60371;BME280;48550;40.588;49.684;2024-03-02T02:22:10;102760.50;;;4.05;72.75
60371;BME280;48550;40.588;49.684;2024-03-02T02:24:40;102758.00;;;3.97;73.33
60371;BME280;48550;40.588;49.684;2024-03-02T02:27:06;102752.00;;;3.92;73.59
60371;BME280;48550;40.588;49.684;2024-03-02T02:29:31;102758.16;;;3.90;73.55
60371;BME280;48550;40.588;49.684;2024-03-02T02:31:57;102762.53;;;3.88;73.83
60371;BME280;48550;40.588;49.684;2024-03-02T02:34:23;102757.31;;;3.86;73.81
60371;BME280;48550;40.588;49.684;2024-03-02T02:36:49;102748.66;;;3.84;73.58
60371;BME280;48550;40.588;49.684;2024-03-02T02:39:16;102758.25;;;3.85;73.83
60371;BME280;48550;40.588;49.684;2024-03-02T02:41:43;102746.91;;;3.85;73.80
60371;BME280;48550;40.588;49.684;2024-03-02T02:44:09;102747.78;;;3.85;74.07
60371;BME280;48550;40.588;49.684;2024-03-02T02:46:38;102751.31;;;3.83;74.18
60371;BME280;48550;40.588;49.684;2024-03-02T02:49:04;102741.66;;;3.86;73.67
60371;BME280;48550;40.588;49.684;2024-03-02T02:51:30;102742.47;;;3.90;73.65
60371;BME280;48550;40.588;49.684;2024-03-02T02:53:56;102747.63;;;3.93;73.16
60371;BME280;48550;40.588;49.684;2024-03-02T02:56:22;102751.13;;;3.93;73.14
60371;BME280;48550;40.588;49.684;2024-03-02T02:58:48;102749.34;;;3.94;72.88
60371;BME280;48550;40.588;49.684;2024-03-02T03:01:15;102753.63;;;3.99;72.58
60371;BME280;48550;40.588;49.684;2024-03-02T03:03:42;102747.50;;;4.00;72.15
60371;BME280;48550;40.588;49.684;2024-03-02T03:06:08;102754.38;;;4.06;72.61
60371;BME280;48550;40.588;49.684;2024-03-02T03:08:33;102749.94;;;4.10;72.23
60371;BME280;48550;40.588;49.684;2024-03-02T03:10:59;102749.94;;;4.10;72.03
60371;BME280;48550;40.588;49.684;2024-03-02T03:13:25;102746.50;;;4.08;71.82
60371;BME280;48550;40.588;49.684;2024-03-02T03:15:51;102755.25;;;4.05;72.14
60371;BME280;48550;40.588;49.684;2024-03-02T03:18:16;102750.81;;;4.09;72.56
60371;BME280;48550;40.588;49.684;2024-03-02T03:20:42;102745.34;;;4.23;71.24
60371;BME280;48550;40.588;49.684;2024-03-02T03:23:08;102742.53;;;4.33;71.09
60371;BME280;48550;40.588;49.684;2024-03-02T03:25:34;102741.38;;;4.48;70.03
60371;BME280;48550;40.588;49.684;2024-03-02T03:27:59;102747.47;;;4.49;70.13
60371;BME280;48550;40.588;49.684;2024-03-02T03:30:27;102755.09;;;4.60;69.79
60371;BME280;48550;40.588;49.684;2024-03-02T03:32:53;102743.34;;;4.81;69.28
60371;BME280;48550;40.588;49.684;2024-03-02T03:35:18;102735.41;;;4.85;69.06
60371;BME280;48550;40.588;49.684;2024-03-02T03:37:44;102750.06;;;4.93;68.76
60371;BME280;48550;40.588;49.684;2024-03-02T03:40:10;102743.81;;;5.00;68.28
60371;BME280;48550;40.588;49.684;2024-03-02T03:42:36;102747.06;;;5.11;68.50
60371;BME280;48550;40.588;49.684;2024-03-02T03:45:03;102755.69;;;5.15;67.53
60371;BME280;48550;40.588;49.684;2024-03-02T03:47:31;102750.31;;;5.21;67.42
60371;BME280;48550;40.588;49.684;2024-03-02T03:49:57;102740.59;;;5.26;67.55
60371;BME280;48550;40.588;49.684;2024-03-02T03:52:23;102739.28;;;5.44;66.50
60371;BME280;48550;40.588;49.684;2024-03-02T03:54:49;102747.88;;;5.51;66.10
60371;BME280;48550;40.588;49.684;2024-03-02T03:57:14;102737.31;;;5.55;65.60
60371;BME280;48550;40.588;49.684;2024-03-02T03:59:40;102744.06;;;5.64;65.31
60371;BME280;48550;40.588;49.684;2024-03-02T04:02:06;102739.88;;;5.57;65.08
60371;BME280;48550;40.588;49.684;2024-03-02T04:04:32;102744.72;;;5.72;65.17
60371;BME280;48550;40.588;49.684;2024-03-02T04:06:59;102740.66;;;5.95;64.36
60371;BME280;48550;40.588;49.684;2024-03-02T04:09:24;102743.56;;;6.18;63.51
60371;BME280;48550;40.588;49.684;2024-03-02T04:11:51;102743.88;;;6.39;63.78
60371;BME280;48550;40.588;49.684;2024-03-02T04:14:17;102737.41;;;6.82;62.96
60371;BME280;48550;40.588;49.684;2024-03-02T04:16:43;102732.50;;;7.28;63.08
60371;BME280;48550;40.588;49.684;2024-03-02T04:19:08;102735.22;;;7.53;61.35
60371;BME280;48550;40.588;49.684;2024-03-02T04:21:34;102729.09;;;7.79;60.16
60371;BME280;48550;40.588;49.684;2024-03-02T04:24:00;102732.66;;;8.04;61.14
60371;BME280;48550;40.588;49.684;2024-03-02T04:26:26;102733.28;;;8.10;60.01
60371;BME280;48550;40.588;49.684;2024-03-02T04:28:52;102731.34;;;8.15;59.45
60371;BME280;48550;40.588;49.684;2024-03-02T04:31:19;102722.00;;;8.32;58.41
60371;BME280;48550;40.588;49.684;2024-03-02T04:33:45;102721.56;;;8.44;58.63
60371;BME280;48550;40.588;49.684;2024-03-02T04:36:11;102726.88;;;8.66;58.03
60371;BME280;48550;40.588;49.684;2024-03-02T04:38:37;102709.28;;;8.90;57.72
60371;BME280;48550;40.588;49.684;2024-03-02T04:41:04;102719.66;;;9.17;56.77
60371;BME280;48550;40.588;49.684;2024-03-02T04:43:31;102711.38;;;9.26;56.19
60371;BME280;48550;40.588;49.684;2024-03-02T04:46:01;102716.66;;;9.69;57.20
60371;BME280;48550;40.588;49.684;2024-03-02T04:48:27;102705.31;;;9.88;54.78
60371;BME280;48550;40.588;49.684;2024-03-02T04:50:52;102716.75;;;10.09;53.39
60371;BME280;48550;40.588;49.684;2024-03-02T04:53:18;102711.41;;;9.90;53.26
60371;BME280;48550;40.588;49.684;2024-03-02T04:55:44;102712.59;;;9.83;53.06
60371;BME280;48550;40.588;49.684;2024-03-02T04:58:09;102711.47;;;9.68;53.30
60371;BME280;48550;40.588;49.684;2024-03-02T05:00:35;102714.69;;;9.32;53.61
60371;BME280;48550;40.588;49.684;2024-03-02T05:03:02;102705.94;;;9.74;52.44
60371;BME280;48550;40.588;49.684;2024-03-02T05:05:28;102720.28;;;10.28;52.40
60371;BME280;48550;40.588;49.684;2024-03-02T05:07:53;102715.34;;;10.41;50.77
60371;BME280;48550;40.588;49.684;2024-03-02T05:10:19;102719.97;;;10.36;51.15
60371;BME280;48550;40.588;49.684;2024-03-02T05:12:45;102707.41;;;12.22;47.44
60371;BME280;48550;40.588;49.684;2024-03-02T05:15:13;102703.38;;;13.58;44.19
60371;BME280;48550;40.588;49.684;2024-03-02T05:17:40;102715.38;;;12.05;46.61
60371;BME280;48550;40.588;49.684;2024-03-02T05:20:07;102719.53;;;11.39;49.02
60371;BME280;48550;40.588;49.684;2024-03-02T05:22:36;102717.56;;;10.69;50.27
60371;BME280;48550;40.588;49.684;2024-03-02T05:25:06;102720.28;;;10.08;52.08
60371;BME280;48550;40.588;49.684;2024-03-02T05:27:32;102720.91;;;9.51;52.72
60371;BME280;48550;40.588;49.684;2024-03-02T05:30:00;102709.88;;;9.63;52.50
60371;BME280;48550;40.588;49.684;2024-03-02T05:32:27;102714.56;;;9.77;53.81
60371;BME280;48550;40.588;49.684;2024-03-02T05:34:53;102705.75;;;9.78;53.95
60371;BME280;48550;40.588;49.684;2024-03-02T05:37:18;102707.00;;;10.30;52.88
60371;BME280;48550;40.588;49.684;2024-03-02T05:39:45;102700.66;;;9.74;52.91
60371;BME280;48550;40.588;49.684;2024-03-02T05:42:11;102699.53;;;9.37;53.77
60371;BME280;48550;40.588;49.684;2024-03-02T05:44:37;102704.97;;;9.54;53.81
60371;BME280;48550;40.588;49.684;2024-03-02T05:47:03;102702.97;;;9.61;54.59
60371;BME280;48550;40.588;49.684;2024-03-02T05:49:29;102691.84;;;9.32;52.97
60371;BME280;48550;40.588;49.684;2024-03-02T05:51:55;102693.31;;;9.60;52.07
60371;BME280;48550;40.588;49.684;2024-03-02T05:54:21;102699.19;;;9.67;51.13
60371;BME280;48550;40.588;49.684;2024-03-02T05:56:47;102701.38;;;9.35;53.01
60371;BME280;48550;40.588;49.684;2024-03-02T05:59:14;102699.59;;;9.35;52.37
60371;BME280;48550;40.588;49.684;2024-03-02T06:01:48;102698.63;;;8.94;53.16
60371;BME280;48550;40.588;49.684;2024-03-02T06:04:16;102704.84;;;9.15;53.45
60371;BME280;48550;40.588;49.684;2024-03-02T06:06:42;102698.75;;;8.90;53.20
60371;BME280;48550;40.588;49.684;2024-03-02T06:09:08;102709.09;;;8.95;53.49
60371;BME280;48550;40.588;49.684;2024-03-02T06:11:35;102707.31;;;9.40;53.40
60371;BME280;48550;40.588;49.684;2024-03-02T06:14:02;102711.13;;;9.55;53.00
60371;BME280;48550;40.588;49.684;2024-03-02T06:16:28;102713.91;;;9.93;52.86
60371;BME280;48550;40.588;49.684;2024-03-02T06:18:55;102711.16;;;9.96;53.79
60371;BME280;48550;40.588;49.684;2024-03-02T06:21:29;102701.09;;;10.04;52.32
60371;BME280;48550;40.588;49.684;2024-03-02T06:23:54;102707.50;;;9.78;51.87
60371;BME280;48550;40.588;49.684;2024-03-02T06:26:20;102706.19;;;9.88;52.07
60371;BME280;48550;40.588;49.684;2024-03-02T06:28:46;102701.72;;;10.30;51.59
60371;BME280;48550;40.588;49.684;2024-03-02T06:31:12;102692.56;;;10.58;52.36
60371;BME280;48550;40.588;49.684;2024-03-02T06:33:38;102699.13;;;10.87;49.40
60371;BME280;48550;40.588;49.684;2024-03-02T06:36:04;102699.16;;;10.68;49.73
60371;BME280;48550;40.588;49.684;2024-03-02T06:38:30;102698.31;;;10.67;49.01
60371;BME280;48550;40.588;49.684;2024-03-02T06:40:59;102693.88;;;10.68;49.50
60371;BME280;48550;40.588;49.684;2024-03-02T06:43:24;102695.91;;;10.03;50.36
60371;BME280;48550;40.588;49.684;2024-03-02T06:45:51;102686.06;;;9.65;51.45
60371;BME280;48550;40.588;49.684;2024-03-02T06:48:17;102692.75;;;9.31;51.83
60371;BME280;48550;40.588;49.684;2024-03-02T06:50:48;102691.50;;;9.18;52.71
60371;BME280;48550;40.588;49.684;2024-03-02T06:53:15;102684.97;;;9.06;52.75
60371;BME280;48550;40.588;49.684;2024-03-02T06:55:43;102688.69;;;9.22;53.11
60371;BME280;48550;40.588;49.684;2024-03-02T06:58:14;102685.28;;;8.98;52.25
60371;BME280;48550;40.588;49.684;2024-03-02T07:00:42;102677.66;;;8.90;52.64
60371;BME280;48550;40.588;49.684;2024-03-02T07:03:09;102671.91;;;9.03;52.07
60371;BME280;48550;40.588;49.684;2024-03-02T07:05:35;102670.41;;;8.97;52.88
60371;BME280;48550;40.588;49.684;2024-03-02T07:08:01;102684.09;;;9.50;52.60
60371;BME280;48550;40.588;49.684;2024-03-02T07:10:28;102681.78;;;9.62;51.47
60371;BME280;48550;40.588;49.684;2024-03-02T07:12:54;102678.53;;;9.76;51.42
60371;BME280;48550;40.588;49.684;2024-03-02T07:15:19;102681.84;;;9.61;51.80
60371;BME280;48550;40.588;49.684;2024-03-02T07:18:04;102685.41;;;9.60;51.79
60371;BME280;48550;40.588;49.684;2024-03-02T07:20:30;102679.59;;;9.52;51.70
60371;BME280;48550;40.588;49.684;2024-03-02T07:22:55;102681.22;;;9.54;52.03
60371;BME280;48550;40.588;49.684;2024-03-02T07:25:21;102678.09;;;9.67;51.87
60371;BME280;48550;40.588;49.684;2024-03-02T07:27:47;102672.28;;;9.79;51.65
60371;BME280;48550;40.588;49.684;2024-03-02T07:30:15;102665.59;;;9.91;50.85
60371;BME280;48550;40.588;49.684;2024-03-02T07:32:44;102658.44;;;9.94;49.73
60371;BME280;48550;40.588;49.684;2024-03-02T07:35:14;102661.25;;;10.10;49.64
60371;BME280;48550;40.588;49.684;2024-03-02T07:37:43;102657.59;;;10.13;49.36
60371;BME280;48550;40.588;49.684;2024-03-02T07:40:09;102659.63;;;10.27;48.77
60371;BME280;48550;40.588;49.684;2024-03-02T07:42:39;102642.50;;;10.16;49.26
60371;BME280;48550;40.588;49.684;2024-03-02T07:45:05;102636.91;;;10.23;49.03
60371;BME280;48550;40.588;49.684;2024-03-02T07:47:35;102641.88;;;10.49;48.01
60371;BME280;48550;40.588;49.684;2024-03-02T07:50:01;102636.28;;;10.17;48.83
60371;BME280;48550;40.588;49.684;2024-03-02T07:52:28;102638.94;;;9.97;49.27
60371;BME280;48550;40.588;49.684;2024-03-02T07:54:54;102638.41;;;10.09;49.38
60371;BME280;48550;40.588;49.684;2024-03-02T07:57:21;102630.13;;;9.98;49.20
60371;BME280;48550;40.588;49.684;2024-03-02T07:59:47;102626.47;;;10.40;48.44
60371;BME280;48550;40.588;49.684;2024-03-02T08:02:12;102617.88;;;10.16;49.13
60371;BME280;48550;40.588;49.684;2024-03-02T08:04:38;102619.03;;;10.29;49.40
60371;BME280;48550;40.588;49.684;2024-03-02T08:07:04;102616.03;;;10.37;48.67
60371;BME280;48550;40.588;49.684;2024-03-02T08:09:30;102612.03;;;10.28;49.11
60371;BME280;48550;40.588;49.684;2024-03-02T08:11:56;102592.22;;;10.39;49.25
60371;BME280;48550;40.588;49.684;2024-03-02T08:14:23;102602.47;;;10.26;49.47
60371;BME280;48550;40.588;49.684;2024-03-02T08:16:48;102593.66;;;10.46;49.31
60371;BME280;48550;40.588;49.684;2024-03-02T08:19:14;102590.09;;;10.47;49.40
60371;BME280;48550;40.588;49.684;2024-03-02T08:21:41;102586.63;;;10.64;49.35
60371;BME280;48550;40.588;49.684;2024-03-02T08:24:07;102597.66;;;10.36;49.66
60371;BME280;48550;40.588;49.684;2024-03-02T08:26:32;102594.84;;;10.01;49.74
60371;BME280;48550;40.588;49.684;2024-03-02T08:28:59;102585.56;;;10.11;50.00
60371;BME280;48550;40.588;49.684;2024-03-02T08:31:27;102582.13;;;10.28;49.05
60371;BME280;48550;40.588;49.684;2024-03-02T08:33:53;102567.72;;;10.54;48.38
60371;BME280;48550;40.588;49.684;2024-03-02T08:36:19;102563.81;;;10.44;49.20
60371;BME280;48550;40.588;49.684;2024-03-02T08:38:45;102557.19;;;10.71;48.10
60371;BME280;48550;40.588;49.684;2024-03-02T08:41:11;102546.03;;;11.01;47.51
60371;BME280;48550;40.588;49.684;2024-03-02T08:43:42;102538.41;;;11.64;46.32
60371;BME280;48550;40.588;49.684;2024-03-02T08:46:08;102543.47;;;11.00;47.03
60371;BME280;48550;40.588;49.684;2024-03-02T08:48:34;102538.31;;;11.14;46.41
60371;BME280;48550;40.588;49.684;2024-03-02T08:51:00;102540.63;;;10.68;46.96
60371;BME280;48550;40.588;49.684;2024-03-02T08:53:25;102528.69;;;10.96;46.47
60371;BME280;48550;40.588;49.684;2024-03-02T08:55:51;102522.47;;;10.79;47.03
60371;BME280;48550;40.588;49.684;2024-03-02T08:58:17;102517.09;;;10.63;47.14
60371;BME280;48550;40.588;49.684;2024-03-02T09:00:43;102519.44;;;10.69;47.34
60371;BME280;48550;40.588;49.684;2024-03-02T09:03:09;102507.63;;;10.94;46.81
60371;BME280;48550;40.588;49.684;2024-03-02T09:05:35;102509.78;;;10.86;47.21
60371;BME280;48550;40.588;49.684;2024-03-02T09:08:01;102504.75;;;10.81;47.15
60371;BME280;48550;40.588;49.684;2024-03-02T09:10:28;102502.75;;;11.04;46.64
60371;BME280;48550;40.588;49.684;2024-03-02T09:12:54;102499.47;;;10.81;46.62
60371;BME280;48550;40.588;49.684;2024-03-02T09:15:20;102516.25;;;10.80;47.38
60371;BME280;48550;40.588;49.684;2024-03-02T09:17:46;102504.59;;;10.84;47.15
60371;BME280;48550;40.588;49.684;2024-03-02T09:20:12;102495.84;;;11.35;46.43
60371;BME280;48550;40.588;49.684;2024-03-02T09:22:39;102489.34;;;11.40;46.13
60371;BME280;48550;40.588;49.684;2024-03-02T09:25:05;102483.75;;;12.12;45.30
60371;BME280;48550;40.588;49.684;2024-03-02T09:27:32;102493.63;;;12.40;45.12
60371;BME280;48550;40.588;49.684;2024-03-02T09:29:58;102496.28;;;11.43;44.89
60371;BME280;48550;40.588;49.684;2024-03-02T09:32:24;102478.19;;;11.35;46.13
60371;BME280;48550;40.588;49.684;2024-03-02T09:34:49;102475.91;;;11.45;46.05
60371;BME280;48550;40.588;49.684;2024-03-02T09:37:15;102476.50;;;11.34;46.30
60371;BME280;48550;40.588;49.684;2024-03-02T09:39:43;102473.97;;;11.15;46.88
60371;BME280;48550;40.588;49.684;2024-03-02T09:42:10;102473.94;;;11.33;47.28
60371;BME280;48550;40.588;49.684;2024-03-02T09:44:35;102457.81;;;11.04;47.77
60371;BME280;48550;40.588;49.684;2024-03-02T09:47:02;102452.94;;;11.30;47.10
60371;BME280;48550;40.588;49.684;2024-03-02T09:49:28;102457.03;;;10.67;48.35
60371;BME280;48550;40.588;49.684;2024-03-02T09:51:54;102450.44;;;10.76;48.30
60371;BME280;48550;40.588;49.684;2024-03-02T09:54:20;102445.63;;;10.66;48.30
60371;BME280;48550;40.588;49.684;2024-03-02T09:56:46;102439.66;;;10.63;48.78
60371;BME280;48550;40.588;49.684;2024-03-02T09:59:12;102454.38;;;10.84;48.76
60371;BME280;48550;40.588;49.684;2024-03-02T10:02:01;102443.97;;;10.81;49.02
60371;BME280;48550;40.588;49.684;2024-03-02T10:04:29;102427.88;;;10.86;48.34
60371;BME280;48550;40.588;49.684;2024-03-02T10:07:14;102426.97;;;10.69;49.00
60371;BME280;48550;40.588;49.684;2024-03-02T10:09:41;102434.91;;;10.69;49.08
60371;BME280;48550;40.588;49.684;2024-03-02T10:12:09;102424.47;;;10.66;49.03
60371;BME280;48550;40.588;49.684;2024-03-02T10:14:38;102425.78;;;10.40;49.63
60371;BME280;48550;40.588;49.684;2024-03-02T10:17:05;102425.78;;;10.40;48.99
60371;BME280;48550;40.588;49.684;2024-03-02T10:19:32;102419.28;;;10.47;49.49
60371;BME280;48550;40.588;49.684;2024-03-02T10:22:01;102412.59;;;10.58;49.44
60371;BME280;48550;40.588;49.684;2024-03-02T10:24:34;102423.78;;;10.63;49.99
60371;BME280;48550;40.588;49.684;2024-03-02T10:27:02;102410.44;;;10.48;49.40
60371;BME280;48550;40.588;49.684;2024-03-02T10:29:29;102423.56;;;10.50;49.59
60371;BME280;48550;40.588;49.684;2024-03-02T10:31:55;102416.66;;;10.28;49.72
60371;BME280;48550;40.588;49.684;2024-03-02T10:34:21;102417.47;;;10.11;50.37
60371;BME280;48550;40.588;49.684;2024-03-02T10:36:47;102413.19;;;9.91;50.84
60371;BME280;48550;40.588;49.684;2024-03-02T10:39:14;102412.38;;;9.89;51.36
60371;BME280;48550;40.588;49.684;2024-03-02T10:41:40;102408.25;;;10.03;51.21
60371;BME280;48550;40.588;49.684;2024-03-02T10:44:08;102402.22;;;10.18;50.96
60371;BME280;48550;40.588;49.684;2024-03-02T10:46:37;102394.84;;;10.25;50.91
60371;BME280;48550;40.588;49.684;2024-03-02T10:49:05;102390.31;;;10.46;50.39
60371;BME280;48550;40.588;49.684;2024-03-02T10:51:32;102400.72;;;10.12;51.10
60371;BME280;48550;40.588;49.684;2024-03-02T10:53:59;102385.91;;;10.27;50.99
60371;BME280;48550;40.588;49.684;2024-03-02T10:56:44;102379.72;;;10.28;51.39
60371;BME280;48550;40.588;49.684;2024-03-02T10:59:27;102378.41;;;10.37;51.22
60371;BME280;48550;40.588;49.684;2024-03-02T11:01:57;102382.47;;;10.44;51.36
60371;BME280;48550;40.588;49.684;2024-03-02T11:04:29;102373.75;;;10.60;51.30
60371;BME280;48550;40.588;49.684;2024-03-02T11:07:04;102376.06;;;10.83;52.30
60371;BME280;48550;40.588;49.684;2024-03-02T11:09:33;102375.41;;;10.96;50.19
60371;BME280;48550;40.588;49.684;2024-03-02T11:14:31;102369.78;;;10.68;50.79
60371;BME280;48550;40.588;49.684;2024-03-02T11:17:01;102382.16;;;10.50;51.26
60371;BME280;48550;40.588;49.684;2024-03-02T11:19:29;102390.81;;;10.87;50.47
60371;BME280;48550;40.588;49.684;2024-03-02T11:21:56;102375.69;;;10.56;50.96
60371;BME280;48550;40.588;49.684;2024-03-02T11:26:53;102370.09;;;10.62;50.75
60371;BME280;48550;40.588;49.684;2024-03-02T11:29:46;102369.78;;;10.51;51.02
60371;BME280;48550;40.588;49.684;2024-03-02T11:32:21;102363.97;;;10.44;50.87
60371;BME280;48550;40.588;49.684;2024-03-02T11:34:48;102365.53;;;10.48;50.76
60371;BME280;48550;40.588;49.684;2024-03-02T11:37:18;102361.22;;;10.81;50.50
60371;BME280;48550;40.588;49.684;2024-03-02T11:39:48;102368.16;;;10.66;50.53
60371;BME280;48550;40.588;49.684;2024-03-02T11:42:17;102357.63;;;10.48;50.72
60371;BME280;48550;40.588;49.684;2024-03-02T11:44:45;102371.97;;;10.43;51.15
60371;BME280;48550;40.588;49.684;2024-03-02T11:47:14;102365.84;;;10.60;50.67
60371;BME280;48550;40.588;49.684;2024-03-02T11:49:43;102367.72;;;10.21;51.66
60371;BME280;48550;40.588;49.684;2024-03-02T11:52:11;102370.97;;;9.91;52.18
60371;BME280;48550;40.588;49.684;2024-03-02T11:54:38;102369.19;;;9.92;52.54
60371;BME280;48550;40.588;49.684;2024-03-02T11:57:13;102362.03;;;9.94;52.84
60371;BME280;48550;40.588;49.684;2024-03-02T11:59:40;102352.81;;;9.85;53.45
60371;BME280;48550;40.588;49.684;2024-03-02T12:02:06;102354.31;;;9.72;53.79
60371;BME280;48550;40.588;49.684;2024-03-02T12:04:32;102360.88;;;9.82;53.89
60371;BME280;48550;40.588;49.684;2024-03-02T12:06:59;102357.69;;;9.75;54.40
60371;BME280;48550;40.588;49.684;2024-03-02T12:09:26;102362.81;;;9.78;54.42
60371;BME280;48550;40.588;49.684;2024-03-02T12:12:05;102357.97;;;9.69;54.55
60371;BME280;48550;40.588;49.684;2024-03-02T12:14:32;102358.53;;;9.57;54.96
60371;BME280;48550;40.588;49.684;2024-03-02T12:16:58;102355.63;;;9.63;55.19
60371;BME280;48550;40.588;49.684;2024-03-02T12:19:25;102350.16;;;9.49;54.84
60371;BME280;48550;40.588;49.684;2024-03-02T12:21:52;102352.44;;;9.37;55.10
60371;BME280;48550;40.588;49.684;2024-03-02T12:24:18;102347.38;;;9.33;54.84
60371;BME280;48550;40.588;49.684;2024-03-02T12:26:44;102333.78;;;9.23;54.91
60371;BME280;48550;40.588;49.684;2024-03-02T12:29:10;102343.22;;;9.27;54.71
60371;BME280;48550;40.588;49.684;2024-03-02T12:31:36;102339.41;;;9.34;54.45
60371;BME280;48550;40.588;49.684;2024-03-02T12:34:03;102348.78;;;9.40;54.30
60371;BME280;48550;40.588;49.684;2024-03-02T12:36:29;102347.94;;;9.39;54.37
60371;BME280;48550;40.588;49.684;2024-03-02T12:38:55;102334.81;;;9.57;54.28
60371;BME280;48550;40.588;49.684;2024-03-02T12:41:21;102339.78;;;9.63;54.40
60371;BME280;48550;40.588;49.684;2024-03-02T12:43:46;102348.00;;;9.38;54.95
60371;BME280;48550;40.588;49.684;2024-03-02T12:46:14;102352.94;;;9.46;55.08
60371;BME280;48550;40.588;49.684;2024-03-02T12:48:40;102346.06;;;9.60;54.41
60371;BME280;48550;40.588;49.684;2024-03-02T12:51:08;102349.78;;;9.56;54.69
60371;BME280;48550;40.588;49.684;2024-03-02T12:53:34;102335.09;;;9.51;54.82